Time;durP1;ratioP1;P1;durP2;ratioP2;P2;SDS_P1;SDS_P2;PMS_P1;PMS_P2;Temp;Humidity;BMP_temperature;BMP_pressure;BME280_temperature;BME280_humidity;BME280_pressure;Samples;Min_cycle;Max_cycle;Signal;HPM_P1;HPM_P2
2022/05/20 00:00:35;;;;;;;3.15;2.27;;;;;;;14.70;37.46;99612.42;1708344;83;20864;-67
2022/05/20 00:03:02;;;;;;;3.00;2.10;;;;;;;14.66;37.49;99609.28;1708515;83;20944;-71
2022/05/20 00:05:29;;;;;;;4.90;3.00;;;;;;;14.67;37.38;99607.44;1708471;83;21437;-69
2022/05/20 00:07:56;;;;;;;2.95;1.92;;;;;;;14.66;37.26;99602.59;1707998;83;21060;-69
2022/05/20 00:10:23;;;;;;;2.45;2.10;;;;;;;14.67;37.48;99604.77;1709324;83;20900;-71
2022/05/20 00:12:50;;;;;;;4.35;2.62;;;;;;;14.66;37.66;99600.42;1709116;83;20916;-72
2022/05/20 00:15:19;;;;;;;3.15;2.37;;;;;;;14.62;38.14;99600.00;1711418;83;21133;-69
2022/05/20 00:17:46;;;;;;;2.42;2.17;;;;;;;14.56;38.58;99595.41;1708527;83;21334;-69
2022/05/20 00:20:15;;;;;;;4.03;2.00;;;;;;;14.50;38.92;99600.69;1706731;83;20979;-69
2022/05/20 00:22:42;;;;;;;4.05;2.02;;;;;;;14.40;39.28;99600.19;1708734;83;20948;-68
2022/05/20 00:27:54;;;;;;;3.98;2.35;;;;;;;14.26;39.61;99597.05;1711899;83;20860;-69
2022/05/20 00:30:21;;;;;;;2.55;1.90;;;;;;;14.22;39.78;99599.27;1719675;83;21249;-69
2022/05/20 00:32:47;;;;;;;2.42;1.87;;;;;;;14.18;40.03;99600.68;1711362;83;20916;-69
2022/05/20 00:35:14;;;;;;;4.92;2.20;;;;;;;14.14;40.19;99601.56;1711597;83;20904;-70
2022/05/20 00:37:40;;;;;;;3.08;2.00;;;;;;;14.12;40.28;99602.77;1711587;83;20940;-68
2022/05/20 00:40:09;;;;;;;4.50;1.85;;;;;;;14.11;40.36;99605.11;1710349;83;21446;-69
2022/05/20 00:42:36;;;;;;;4.45;1.60;;;;;;;14.09;40.45;99616.52;1708127;83;21843;-71
2022/05/20 00:45:04;;;;;;;4.35;2.08;;;;;;;14.07;40.52;99607.86;1708274;83;20931;-69
2022/05/20 00:47:30;;;;;;;2.52;1.50;;;;;;;14.03;40.65;99602.55;1708461;83;20995;-69
2022/05/20 00:49:57;;;;;;;2.72;2.02;;;;;;;14.02;40.69;99607.59;1708313;83;20864;-68
2022/05/20 00:52:27;;;;;;;5.10;1.85;;;;;;;14.01;40.83;99611.28;1707700;83;20949;-68
2022/05/20 00:54:57;;;;;;;2.40;1.50;;;;;;;13.97;41.03;99601.99;1709099;83;21129;-68
2022/05/20 00:57:34;;;;;;;5.53;1.80;;;;;;;13.95;41.17;99608.02;1710688;83;20916;-68
2022/05/20 01:00:10;;;;;;;3.15;1.72;;;;;;;13.92;41.33;99615.10;1715395;83;21055;-69
2022/05/20 01:02:37;;;;;;;4.72;2.00;;;;;;;13.87;41.42;99608.95;1717099;83;20956;-70
2022/05/20 01:05:15;;;;;;;2.85;1.62;;;;;;;13.84;41.54;99604.02;1719537;83;20946;-71
2022/05/20 01:07:42;;;;;;;4.25;1.82;;;;;;;13.83;41.62;99605.52;1718913;83;21169;-71
2022/05/20 01:10:09;;;;;;;3.50;1.52;;;;;;;13.79;41.83;99605.59;1719500;83;21853;-70
2022/05/20 01:12:36;;;;;;;3.50;2.02;;;;;;;13.76;41.96;99605.45;1716394;83;20872;-69
2022/05/20 01:15:07;;;;;;;3.35;2.10;;;;;;;13.73;42.04;99604.99;1712881;83;20931;-67
2022/05/20 01:17:34;;;;;;;2.62;1.80;;;;;;;13.69;42.25;99598.38;1716509;83;20952;-72
2022/05/20 01:20:00;;;;;;;4.60;1.85;;;;;;;13.66;42.37;99596.07;1716513;83;21262;-68
2022/05/20 01:22:48;;;;;;;2.90;1.82;;;;;;;13.62;42.54;99599.61;1716610;83;20960;-67
2022/05/20 01:25:16;;;;;;;3.55;1.87;;;;;;;13.59;42.74;99603.49;1716613;83;21448;-67
2022/05/20 01:27:42;;;;;;;4.47;1.77;;;;;;;13.55;42.79;99607.56;1716462;83;20935;-69
2022/05/20 01:30:13;;;;;;;4.70;2.67;;;;;;;13.50;42.62;99602.45;1716656;83;21022;-68
2022/05/20 01:32:40;;;;;;;3.15;2.37;;;;;;;13.49;42.26;99606.96;1744225;81;21258;-67
2022/05/20 01:35:12;;;;;;;5.12;2.60;;;;;;;13.46;42.07;99605.99;1750837;81;20939;-72
2022/05/20 01:37:39;;;;;;;5.15;2.33;;;;;;;13.46;42.18;99599.31;1727456;83;21492;-69
2022/05/20 01:40:07;;;;;;;5.12;2.77;;;;;;;13.46;42.13;99601.98;1719401;83;20907;-69
2022/05/20 01:42:48;;;;;;;2.10;1.90;;;;;;;13.44;42.04;99598.67;1719505;83;20976;-68
2022/05/20 01:45:19;;;;;;;3.12;2.20;;;;;;;13.44;42.11;99597.84;1708251;81;21212;-68
2022/05/20 01:48:12;;;;;;;2.95;1.90;;;;;;;13.44;42.14;99597.84;1750114;81;21529;-68
2022/05/20 01:50:50;;;;;;;2.47;1.70;;;;;;;13.42;42.12;99592.70;1717127;83;20943;-68
2022/05/20 01:53:39;;;;;;;2.58;1.70;;;;;;;13.41;41.95;99587.02;1716829;83;21018;-68
2022/05/20 01:56:22;;;;;;;3.20;2.12;;;;;;;13.42;41.81;99579.33;1715871;83;20947;-70
2022/05/20 01:59:00;;;;;;;3.65;1.98;;;;;;;13.45;41.70;99580.27;1717360;83;21159;-67
2022/05/20 02:01:37;;;;;;;4.78;2.00;;;;;;;13.46;41.60;99571.25;1716603;82;21473;-68
2022/05/20 02:04:08;;;;;;;5.92;2.75;;;;;;;13.51;41.49;99582.20;1717414;83;20904;-69
2022/05/20 02:06:43;;;;;;;6.15;2.40;;;;;;;13.57;41.35;99581.47;1716371;83;21405;-67
2022/05/20 02:09:19;;;;;;;3.98;2.02;;;;;;;13.62;41.25;99576.89;1714745;83;21014;-71
2022/05/20 02:11:49;;;;;;;;;;;;;;;13.67;41.34;99572.31;1715675;83;21363;-68
2022/05/20 02:14:47;;;;;;;4.33;1.70;;;;;;;13.68;41.43;99574.81;1715545;83;20097;-69
2022/05/20 02:17:19;;;;;;;5.00;2.65;;;;;;;13.70;41.58;99578.12;1716673;83;20995;-67
2022/05/20 02:20:04;;;;;;;4.62;1.70;;;;;;;13.69;41.55;99573.78;1716934;82;21014;-67
2022/05/20 02:22:34;;;;;;;1.42;1.32;;;;;;;13.68;41.69;99575.32;1716658;83;20975;-68
2022/05/20 02:25:02;;;;;;;2.50;1.75;;;;;;;13.66;41.72;99576.02;1716478;83;21252;-68
2022/05/20 02:27:33;;;;;;;4.05;1.52;;;;;;;13.63;41.94;99572.38;1716568;83;21599;-68
2022/05/20 02:30:07;;;;;;;2.45;1.47;;;;;;;13.62;42.11;99568.88;1713647;83;20915;-69
2022/05/20 02:32:53;;;;;;;2.45;1.57;;;;;;;13.60;42.12;99562.39;1716556;83;20916;-69
2022/05/20 02:35:20;;;;;;;1.52;1.17;;;;;;;13.63;42.15;99559.31;1723100;82;21002;-67
2022/05/20 02:37:47;;;;;;;5.60;1.67;;;;;;;13.65;42.10;99556.48;1719506;83;21152;-67
2022/05/20 02:40:15;;;;;;;3.70;2.00;;;;;;;13.67;42.23;99557.61;1717873;83;20928;-69
2022/05/20 02:42:42;;;;;;;3.10;1.60;;;;;;;13.68;42.38;99565.46;1726004;83;20878;-68
2022/05/20 02:45:09;;;;;;;4.08;2.17;;;;;;;13.69;42.48;99564.42;1724210;83;21009;-68
2022/05/20 02:47:37;;;;;;;5.65;1.70;;;;;;;13.69;42.61;99560.95;1724293;83;20883;-68
2022/05/20 02:50:07;;;;;;;3.58;2.52;;;;;;;13.72;42.73;99554.70;1725262;83;21251;-69
2022/05/20 02:52:34;;;;;;;2.90;1.90;;;;;;;13.72;42.72;99552.52;1726335;83;20990;-67
2022/05/20 02:55:00;;;;;;;3.10;2.00;;;;;;;13.74;42.56;99556.66;1717219;83;20990;-70
2022/05/20 02:57:26;;;;;;;5.42;2.12;;;;;;;13.80;42.87;99559.09;1716102;83;20998;-69
2022/05/20 03:05:23;;;;;;;3.37;2.17;;;;;;;13.94;43.15;99556.90;1702384;83;20900;-69
2022/05/20 03:07:51;;;;;;;3.67;2.10;;;;;;;14.01;43.16;99558.63;1719914;82;20951;-69
2022/05/20 03:10:18;;;;;;;3.72;2.22;;;;;;;14.08;43.44;99554.16;1708333;83;20947;-69
2022/05/20 03:12:44;;;;;;;3.52;2.25;;;;;;;14.22;43.35;99552.45;1709324;83;21130;-67
2022/05/20 03:15:13;;;;;;;5.58;2.17;;;;;;;14.34;43.37;99552.27;1711542;83;21089;-69
2022/05/20 03:17:39;;;;;;;2.47;1.45;;;;;;;14.45;43.35;99549.58;1711578;83;21552;-68
2022/05/20 03:20:09;;;;;;;3.08;1.60;;;;;;;14.55;43.01;99556.26;1719825;82;20891;-68
2022/05/20 03:22:36;;;;;;;7.50;2.30;;;;;;;14.63;42.31;99549.43;1709208;83;20948;-70
2022/05/20 03:25:04;;;;;;;1.87;1.60;;;;;;;14.75;41.58;99543.04;1709368;83;20983;-69
2022/05/20 03:27:32;;;;;;;2.02;1.50;;;;;;;14.87;41.06;99545.48;1708409;83;21149;-68
2022/05/20 03:29:58;;;;;;;2.98;1.65;;;;;;;15.04;40.65;99541.98;1708354;83;20944;-67
2022/05/20 03:32:25;;;;;;;2.98;1.40;;;;;;;15.22;40.13;99532.92;1706754;83;20990;-72
2022/05/20 03:34:51;;;;;;;2.17;1.62;;;;;;;15.44;39.97;99531.26;1708263;83;20908;-68
2022/05/20 03:37:18;;;;;;;3.17;2.08;;;;;;;15.72;39.59;99523.13;1708501;83;21029;-69
2022/05/20 03:39:45;;;;;;;3.45;2.12;;;;;;;16.00;39.03;99525.69;1708530;83;21243;-68
2022/05/20 03:42:12;;;;;;;4.45;1.67;;;;;;;16.28;38.32;99519.63;1708813;83;21631;-67
2022/05/20 03:44:39;;;;;;;4.70;1.87;;;;;;;16.54;37.65;99522.86;1708442;83;20983;-68
2022/05/20 03:47:05;;;;;;;2.75;1.87;;;;;;;16.76;37.12;99524.81;1708440;83;20972;-68
2022/05/20 03:49:32;;;;;;;2.62;1.95;;;;;;;16.91;36.71;99519.52;1708409;83;20995;-68
2022/05/20 03:51:59;;;;;;;3.20;1.95;;;;;;;17.10;36.38;99520.50;1708401;83;21143;-67
2022/05/20 03:54:35;;;;;;;6.28;2.55;;;;;;;17.31;35.99;99520.23;1708780;83;20892;-68
2022/05/20 03:57:00;;;;;;;5.60;1.90;;;;;;;17.51;35.62;99521.48;1715310;83;20954;-68
2022/05/20 03:59:27;;;;;;;3.47;1.98;;;;;;;17.70;35.21;99528.13;1722205;83;20891;-68
2022/05/20 04:01:59;;;;;;;3.08;2.00;;;;;;;17.85;34.88;99523.31;1726753;83;20884;-68
2022/05/20 04:04:39;;;;;;;4.97;2.00;;;;;;;17.97;34.71;99530.16;1718332;83;21144;-68
2022/05/20 04:07:09;;;;;;;2.77;2.40;;;;;;;18.04;34.39;99532.28;1719416;83;20883;-68
2022/05/20 04:09:37;;;;;;;3.62;2.05;;;;;;;18.02;34.22;99531.69;1718640;83;20995;-68
2022/05/20 04:12:08;;;;;;;4.28;2.50;;;;;;;17.98;34.35;99534.52;1718476;83;21482;-68
2022/05/20 04:14:35;;;;;;;2.52;1.72;;;;;;;17.91;34.43;99531.02;1718058;83;20936;-71
2022/05/20 04:17:02;;;;;;;3.75;2.10;;;;;;;17.85;34.60;99531.91;1727051;83;21200;-70
2022/05/20 04:19:31;;;;;;;7.05;2.22;;;;;;;17.83;34.73;99532.65;1726128;83;20974;-66
2022/05/20 04:22:00;;;;;;;3.22;2.30;;;;;;;17.86;34.78;99533.53;1718964;83;20978;-68
2022/05/20 04:24:27;;;;;;;3.27;1.67;;;;;;;17.94;34.86;99534.63;1730842;81;20906;-70
2022/05/20 04:26:53;;;;;;;2.85;2.12;;;;;;;18.09;34.78;99533.00;1717228;83;21008;-70
2022/05/20 04:29:20;;;;;;;3.02;1.80;;;;;;;18.23;34.58;99532.69;1717001;83;21257;-68
2022/05/20 04:31:49;;;;;;;4.62;2.22;;;;;;;18.32;34.51;99533.25;1716738;83;21451;-67
2022/05/20 04:34:15;;;;;;;6.60;2.35;;;;;;;18.45;34.41;99533.98;1719047;83;21004;-67
2022/05/20 04:36:43;;;;;;;3.55;2.12;;;;;;;18.73;34.22;99530.03;1716641;83;20940;-68
2022/05/20 04:39:10;;;;;;;7.87;2.70;;;;;;;19.04;33.99;99531.27;1716938;83;21033;-65
2022/05/20 04:46:59;;;;;;;4.67;2.42;;;;;;;20.10;32.97;99526.24;1690709;83;21484;-67
2022/05/20 04:49:27;;;;;;;4.13;2.17;;;;;;;20.40;32.69;99524.34;1724529;83;20942;-66
2022/05/20 04:51:54;;;;;;;5.50;2.80;;;;;;;20.71;32.35;99521.84;1724636;83;20843;-66
2022/05/20 04:57:07;;;;;;;4.37;2.40;;;;;;;21.35;31.67;99515.47;1709783;83;20939;-66
2022/05/20 04:59:39;;;;;;;3.60;2.42;;;;;;;22.30;30.33;99504.84;1708958;83;20967;-66
2022/05/20 05:02:05;;;;;;;5.87;2.72;;;;;;;22.30;30.33;99504.84;1708820;83;20948;-67
2022/05/20 05:04:33;;;;;;;7.28;2.72;;;;;;;22.68;30.12;99499.55;1708418;83;20927;-68
2022/05/20 05:07:00;;;;;;;6.37;3.47;;;;;;;22.89;29.88;99508.24;1709434;83;21196;-69
2022/05/20 05:09:27;;;;;;;7.92;2.90;;;;;;;23.02;29.67;99503.82;1710309;83;21007;-67
2022/05/20 05:11:54;;;;;;;4.70;2.80;;;;;;;23.11;29.47;99502.86;1707317;83;21591;-71
2022/05/20 05:14:20;;;;;;;5.40;2.75;;;;;;;23.14;29.48;99499.13;1707276;83;21069;-68
2022/05/20 05:16:47;;;;;;;4.17;2.42;;;;;;;23.23;29.50;99490.81;1708971;83;21075;-68
2022/05/20 05:19:14;;;;;;;6.35;2.72;;;;;;;23.42;29.50;99492.71;1701553;83;21348;-69
2022/05/20 05:21:42;;;;;;;7.55;2.90;;;;;;;23.69;29.31;99496.84;1707346;83;21012;-71
2022/05/20 05:24:09;;;;;;;4.53;2.85;;;;;;;24.04;28.94;99493.68;1706300;83;21599;-67
2022/05/20 05:26:36;;;;;;;3.77;2.37;;;;;;;24.43;28.77;99489.15;1711503;83;21627;-71
2022/05/20 05:29:04;;;;;;;4.33;2.60;;;;;;;24.92;28.21;99493.08;1685714;85;20935;-67
2022/05/20 05:31:31;;;;;;;3.65;2.95;;;;;;;25.40;27.61;99487.32;1701712;83;21239;-67
2022/05/20 05:33:58;;;;;;;3.90;2.52;;;;;;;25.92;27.08;99487.77;1702529;84;20923;-69
2022/05/20 05:36:24;;;;;;;5.58;2.65;;;;;;;26.43;26.43;99484.59;1707808;83;20930;-72
2022/05/20 05:38:51;;;;;;;4.55;2.75;;;;;;;26.89;25.99;99487.56;1718804;83;21544;-70
2022/05/20 05:41:19;;;;;;;3.22;2.30;;;;;;;27.39;25.92;99489.33;1709798;83;21038;-68
2022/05/20 05:43:46;;;;;;;5.92;2.30;;;;;;;27.90;25.00;99495.36;1708678;83;21153;-71
2022/05/20 05:46:13;;;;;;;5.67;2.40;;;;;;;28.48;24.30;99488.14;1708545;83;21048;-70
2022/05/20 05:48:41;;;;;;;6.20;2.40;;;;;;;29.00;23.81;99485.47;1709739;83;21008;-68
2022/05/20 05:51:08;;;;;;;5.83;2.70;;;;;;;29.57;23.12;99481.80;1705577;83;21473;-74
2022/05/20 05:53:34;;;;;;;5.10;2.30;;;;;;;30.11;22.65;99482.72;1708523;83;20903;-66
2022/05/20 05:56:02;;;;;;;5.85;2.58;;;;;;;30.68;22.42;99477.40;1706806;83;21305;-67
2022/05/20 05:58:29;;;;;;;3.87;2.50;;;;;;;31.24;21.23;99472.22;1706648;83;20948;-70
2022/05/20 06:00:56;;;;;;;4.42;2.40;;;;;;;31.65;20.86;99478.55;1710651;83;20988;-72
2022/05/20 06:03:23;;;;;;;6.90;3.02;;;;;;;32.03;20.27;99474.39;1711085;83;21564;-75
2022/05/20 06:05:50;;;;;;;6.33;2.67;;;;;;;32.40;20.21;99466.90;1707150;83;20979;-70
2022/05/20 06:08:16;;;;;;;4.15;2.35;;;;;;;32.83;19.51;99453.66;1719624;83;22179;-68
2022/05/20 06:10:45;;;;;;;5.15;2.42;;;;;;;33.27;18.96;99454.09;1711428;83;20868;-69
2022/05/20 06:13:13;;;;;;;4.65;2.30;;;;;;;33.68;18.58;99450.17;1719660;83;20990;-69
2022/05/20 06:15:39;;;;;;;4.58;2.05;;;;;;;34.09;18.13;99445.83;1711474;83;20990;-69
2022/05/20 06:18:09;;;;;;;3.20;2.12;;;;;;;34.35;17.90;99451.31;1719641;83;21406;-70
2022/05/20 06:20:36;;;;;;;7.40;1.80;;;;;;;34.73;17.42;99443.94;1711688;83;21961;-69
2022/05/20 06:23:03;;;;;;;5.35;2.00;;;;;;;34.98;16.87;99444.17;1709952;83;20932;-69
2022/05/20 06:25:30;;;;;;;4.15;2.08;;;;;;;35.14;16.40;99459.09;1708691;83;20987;-70
2022/05/20 06:28:07;;;;;;;2.72;1.95;;;;;;;35.16;16.28;99449.33;1708411;83;20955;-71
2022/05/20 06:30:33;;;;;;;3.15;1.98;;;;;;;34.96;16.18;99446.47;1708490;83;21013;-70
2022/05/20 06:33:01;;;;;;;1.70;1.60;;;;;;;34.50;16.62;99452.73;1708494;83;21205;-73
2022/05/20 06:40:59;;;;;;;5.03;2.58;;;;;;;33.65;17.75;99447.48;1720187;82;21016;-69
2022/05/20 06:43:26;;;;;;;4.22;2.17;;;;;;;33.54;18.29;99445.57;1711723;83;21493;-73
2022/05/20 06:45:56;;;;;;;6.92;2.20;;;;;;;33.47;18.04;99441.67;1709102;83;21256;-69
2022/05/20 06:48:24;;;;;;;4.97;2.17;;;;;;;33.20;18.05;99440.53;1708412;83;21485;-70
2022/05/20 06:50:51;;;;;;;6.90;2.30;;;;;;;32.68;18.69;99439.48;1708419;83;20978;-71
2022/05/20 06:53:17;;;;;;;4.72;2.65;;;;;;;32.42;19.19;99437.11;1708449;83;20951;-70
2022/05/20 06:55:43;;;;;;;5.55;2.27;;;;;;;32.25;19.37;99440.58;1708563;83;21532;-70
2022/05/20 06:58:12;;;;;;;5.37;1.85;;;;;;;32.17;19.65;99426.98;1708389;83;21307;-69
2022/05/20 07:00:39;;;;;;;6.05;2.12;;;;;;;32.30;19.67;99436.33;1715246;83;20954;-69
2022/05/20 07:03:06;;;;;;;7.28;2.10;;;;;;;32.55;19.46;99430.74;1716683;83;20955;-70
2022/05/20 07:05:34;;;;;;;5.62;2.17;;;;;;;32.85;19.31;99433.48;1716633;83;21050;-69
2022/05/20 07:08:01;;;;;;;2.33;1.92;;;;;;;33.25;18.77;99429.36;1716629;83;21524;-68
2022/05/20 07:10:27;;;;;;;5.22;2.20;;;;;;;33.51;18.67;99424.16;1716699;83;21233;-70
2022/05/20 07:12:54;;;;;;;4.22;2.00;;;;;;;33.84;18.11;99422.35;1716792;83;20939;-70
2022/05/20 07:15:21;;;;;;;4.42;2.00;;;;;;;33.71;17.97;99415.05;1716683;83;21437;-70
2022/05/20 07:17:48;;;;;;;2.80;2.22;;;;;;;33.48;18.38;99418.45;1716580;83;20948;-72
2022/05/20 07:20:15;;;;;;;3.35;2.00;;;;;;;33.24;18.44;99423.62;1716583;83;21579;-72
2022/05/20 07:22:41;;;;;;;5.25;2.80;;;;;;;32.98;18.93;99416.63;1716479;83;21300;-70
2022/05/20 07:25:09;;;;;;;2.92;2.12;;;;;;;32.87;19.04;99412.52;1716763;83;20899;-70
2022/05/20 07:27:36;;;;;;;3.12;1.80;;;;;;;32.90;19.13;99406.37;1716528;83;20904;-72
2022/05/20 07:30:04;;;;;;;5.37;2.40;;;;;;;33.47;18.75;99408.58;1716730;83;20994;-72
2022/05/20 07:32:31;;;;;;;7.22;2.25;;;;;;;34.15;18.15;99405.08;1716588;83;20947;-69
2022/05/20 07:34:58;;;;;;;7.03;3.08;;;;;;;34.54;17.76;99399.86;1716736;83;21918;-69
2022/05/20 07:37:24;;;;;;;5.70;2.35;;;;;;;34.64;17.87;99392.63;1716555;83;20924;-69
2022/05/20 07:39:51;;;;;;;6.92;2.50;;;;;;;34.86;17.38;99390.19;1716576;83;20995;-71
2022/05/20 07:42:18;;;;;;;7.22;2.50;;;;;;;34.68;17.77;99390.81;1716603;83;20927;-69
2022/05/20 07:44:44;;;;;;;3.52;2.27;;;;;;;34.96;17.36;99392.58;1716575;83;20884;-71
2022/05/20 07:47:11;;;;;;;3.62;2.60;;;;;;;35.44;17.10;99387.42;1716597;83;21225;-71
2022/05/20 07:49:38;;;;;;;5.60;2.33;;;;;;;35.47;17.03;99382.61;1716521;83;20927;-69
2022/05/20 07:52:07;;;;;;;6.75;2.15;;;;;;;35.75;16.81;99380.12;1716668;83;20876;-71
2022/05/20 07:54:36;;;;;;;3.27;2.22;;;;;;;36.37;15.95;99379.46;1716628;83;20904;-72
2022/05/20 07:57:07;;;;;;;3.40;2.00;;;;;;;36.96;15.90;99373.02;1716607;83;21058;-71
2022/05/20 07:59:50;;;;;;;3.42;1.90;;;;;;;37.56;15.75;99372.16;1716499;83;21288;-69
2022/05/20 08:02:18;;;;;;;2.55;1.80;;;;;;;37.29;15.50;99365.92;1716594;83;21053;-68
2022/05/20 08:04:55;;;;;;;7.37;2.10;;;;;;;36.71;15.31;99363.03;1716486;82;20971;-71
2022/05/20 08:07:27;;;;;;;3.50;2.00;;;;;;;36.73;15.21;99357.98;1716670;83;21556;-70
2022/05/20 08:09:54;;;;;;;3.05;2.00;;;;;;;36.89;15.01;99352.55;1716568;83;20951;-71
2022/05/20 08:12:21;;;;;;;3.98;2.00;;;;;;;37.14;14.90;99351.40;1716488;83;21142;-68
2022/05/20 08:14:50;;;;;;;2.85;2.10;;;;;;;37.31;14.74;99341.41;1716496;83;21001;-72
2022/05/20 08:17:20;;;;;;;3.85;2.17;;;;;;;37.60;14.49;99339.75;1716622;83;20966;-70
2022/05/20 08:19:47;;;;;;;5.97;1.90;;;;;;;37.89;14.30;99340.59;1717063;83;21453;-69
2022/05/20 08:22:17;;;;;;;3.58;1.90;;;;;;;38.44;13.77;99336.38;1716721;83;20899;-68
2022/05/20 08:24:43;;;;;;;3.62;2.25;;;;;;;38.05;13.89;99336.70;1716670;83;21776;-70
2022/05/20 08:27:11;;;;;;;1.87;1.77;;;;;;;37.95;13.92;99324.72;1716428;83;20967;-69
2022/05/20 08:29:38;;;;;;;4.42;1.70;;;;;;;38.26;13.80;99316.44;1716672;83;20900;-69
2022/05/20 08:32:05;;;;;;;4.85;2.00;;;;;;;38.42;13.93;99313.70;1716344;83;20951;-70
2022/05/20 08:34:32;;;;;;;3.80;1.90;;;;;;;38.58;13.82;99318.68;1716788;83;21556;-69
2022/05/20 08:36:58;;;;;;;4.80;1.87;;;;;;;39.23;13.31;99316.28;1716597;83;21137;-69
2022/05/20 08:39:27;;;;;;;4.40;2.15;;;;;;;39.92;12.91;99310.59;1716525;83;21512;-69
2022/05/20 08:41:53;;;;;;;6.37;1.72;;;;;;;40.58;12.24;99303.86;1716647;83;20896;-71
2022/05/20 08:44:21;;;;;;;4.35;1.80;;;;;;;41.31;11.72;99298.41;1716541;83;21018;-69
2022/05/20 08:46:49;;;;;;;6.20;1.98;;;;;;;41.72;11.04;99291.77;1716612;83;21425;-72
2022/05/20 08:49:21;;;;;;;4.12;1.72;;;;;;;41.32;11.37;99291.08;1716473;83;21157;-68
2022/05/20 08:51:52;;;;;;;3.70;1.55;;;;;;;41.99;11.05;99286.30;1716444;83;20912;-67
2022/05/20 08:54:18;;;;;;;4.72;1.70;;;;;;;42.51;10.81;99288.00;1716190;83;21010;-70
2022/05/20 08:56:44;;;;;;;2.33;1.70;;;;;;;43.14;10.16;99282.68;1716552;83;20947;-70
2022/05/20 08:59:18;;;;;;;1.98;1.80;;;;;;;43.52;9.91;99277.28;1716485;83;20998;-69
2022/05/20 09:01:48;;;;;;;5.58;1.85;;;;;;;43.98;9.59;99278.05;1723600;82;21102;-69
2022/05/20 09:04:18;;;;;;;4.35;1.35;;;;;;;44.21;9.61;99277.09;1715494;83;21350;-68
2022/05/20 09:07:04;;;;;;;5.53;1.92;;;;;;;44.05;9.65;99280.26;1718406;83;20887;-70
2022/05/20 09:09:46;;;;;;;4.45;1.45;;;;;;;44.38;9.54;99269.91;1719633;83;20983;-68
2022/05/20 09:12:36;;;;;;;3.72;1.80;;;;;;;44.53;9.46;99274.33;1719481;83;21002;-72
2022/05/20 09:18:07;;;;;;;3.25;1.65;;;;;;;44.47;9.28;99261.87;1719511;83;20971;-72
2022/05/20 09:20:36;;;;;;;3.30;2.27;;;;;;;44.34;9.45;99258.69;1719476;83;20919;-70
2022/05/20 09:23:05;;;;;;;4.08;2.10;;;;;;;44.09;9.18;99261.43;1666590;83;21002;-70
2022/05/20 09:25:34;;;;;;;6.10;2.80;;;;;;;43.43;9.34;99248.87;1716576;83;20951;-68
2022/05/20 09:28:31;;;;;;;4.47;2.30;;;;;;;42.78;9.69;99249.48;1716530;83;21139;-72
2022/05/20 09:31:22;;;;;;;4.37;2.00;;;;;;;42.72;9.73;99245.43;1716896;83;20998;-72
2022/05/20 09:34:09;;;;;;;7.83;2.20;;;;;;;42.62;10.19;99246.17;1680840;83;20911;-69
2022/05/20 09:36:51;;;;;;;4.08;1.95;;;;;;;43.20;9.67;99241.94;1728149;81;37919;-69
2022/05/20 09:39:21;;;;;;;3.10;2.60;;;;;;;43.04;9.61;99231.08;1727269;82;20883;-70
2022/05/20 09:41:54;;;;;;;3.55;1.98;;;;;;;42.78;10.03;99236.89;1719632;83;21136;-71
2022/05/20 09:44:24;;;;;;;5.72;2.37;;;;;;;41.83;10.35;99238.24;1719449;83;21018;-68
2022/05/20 09:46:57;;;;;;;8.53;3.17;;;;;;;40.85;10.83;99239.97;1719526;83;20990;-70
2022/05/20 09:49:35;;;;;;;9.88;4.65;;;;;;;40.81;10.64;99237.70;1727540;82;20962;-69
2022/05/20 09:52:02;;;;;;;8.05;2.65;;;;;;;41.55;10.19;99230.34;1717473;83;21061;-70
2022/05/20 09:54:36;;;;;;;6.95;3.33;;;;;;;41.32;10.17;99238.06;1719598;83;21247;-73
2022/05/20 09:57:16;;;;;;;9.40;3.10;;;;;;;40.75;10.68;99227.27;1719347;83;21497;-68
2022/05/20 10:00:06;;;;;;;9.85;2.20;;;;;;;40.31;11.37;99225.56;1727788;81;20943;-71
2022/05/20 10:03:06;;;;;;;9.48;3.25;;;;;;;41.44;10.52;99217.45;1719339;83;20920;-70
2022/05/20 10:05:52;;;;;;;7.58;2.30;;;;;;;41.43;10.31;99215.86;1711701;83;20960;-69
2022/05/20 10:09:02;;;;;;;3.52;1.85;;;;;;;39.38;11.12;99219.42;1710288;83;21148;-68
2022/05/20 10:11:38;;;;;;;3.87;1.80;;;;;;;37.90;12.00;99217.30;1711561;83;20995;-68
2022/05/20 10:14:14;;;;;;;2.33;1.60;;;;;;;36.33;13.05;99213.77;1720228;82;20915;-68
2022/05/20 10:16:56;;;;;;;;;;;;;;;35.18;14.27;99221.73;1722338;83;21500;-70
2022/05/20 10:19:48;;;;;;;2.55;1.50;;;;;;;34.59;14.91;99214.09;1711563;83;20237;-70
2022/05/20 10:22:46;;;;;;;3.00;1.60;;;;;;;34.04;15.34;99211.39;1720330;82;21297;-68
2022/05/20 10:25:36;;;;;;;4.40;1.98;;;;;;;33.53;15.97;99206.80;1719743;83;21464;-68
2022/05/20 10:34:18;;;;;;;3.40;1.70;;;;;;;33.06;17.20;99201.52;1719920;82;21441;-68
2022/05/20 10:37:01;;;;;;;2.22;2.00;;;;;;;32.98;15.98;99192.87;1711439;83;21407;-67
2022/05/20 10:39:36;;;;;;;4.65;2.35;;;;;;;32.83;16.10;99187.84;1608440;83;20899;-68
2022/05/20 10:42:20;;;;;;;6.10;2.07;;;;;;;32.85;16.53;99198.55;1707743;83;20934;-70
2022/05/20 10:48:35;;;;;;;6.00;1.87;;;;;;;33.06;16.73;99188.52;1712488;83;20990;-73
2022/05/20 10:51:10;;;;;;;5.25;1.90;;;;;;;33.06;16.33;99186.36;1702318;83;21303;-68
2022/05/20 10:53:56;;;;;;;;;;;;;;;32.80;15.89;99181.59;1715123;82;20936;-69
2022/05/20 10:57:08;;;;;;;4.20;1.80;;;;;;;32.43;16.32;99182.19;1711509;83;20136;-70
2022/05/20 11:00:08;;;;;;;7.42;2.10;;;;;;;32.15;16.91;99171.97;1718348;82;20967;-69
2022/05/20 11:02:55;;;;;;;4.58;1.98;;;;;;;32.03;17.68;99167.65;1719959;83;20934;-69
2022/05/20 11:06:08;;;;;;;6.12;1.77;;;;;;;31.95;17.51;99164.27;1711621;83;21270;-69
2022/05/20 11:09:00;;;;;;;8.10;1.70;;;;;;;32.00;17.37;99168.84;1711569;83;20923;-67
2022/05/20 11:11:50;;;;;;;2.75;1.42;;;;;;;31.79;17.22;99165.81;1711554;83;20936;-70
2022/05/20 11:14:40;;;;;;;3.52;1.55;;;;;;;31.49;17.71;99161.14;1711603;83;20903;-69
2022/05/20 11:17:33;;;;;;;3.33;1.80;;;;;;;31.08;18.09;99160.74;1720215;82;21039;-70
2022/05/20 11:20:30;;;;;;;1.95;1.67;;;;;;;30.81;18.67;99152.59;1719870;83;21246;-69
2022/05/20 11:23:06;;;;;;;;;;;;;;;30.63;19.40;99156.87;1714152;83;20968;-69
2022/05/20 11:25:53;;;;;;;4.45;1.60;;;;;;;30.58;19.63;99151.73;1711827;83;20141;-70
2022/05/20 11:29:01;;;;;;;5.20;1.75;;;;;;;30.59;19.61;99158.03;1711648;83;20974;-69
2022/05/20 11:31:49;;;;;;;7.10;1.60;;;;;;;30.71;19.00;99145.16;1711463;83;21414;-71
2022/05/20 11:34:45;;;;;;;4.42;1.55;;;;;;;30.76;19.23;99137.61;1711800;83;21895;-72
2022/05/20 11:37:59;;;;;;;2.27;1.50;;;;;;;30.95;19.40;99131.95;1711752;83;21114;-71
2022/05/20 11:40:53;;;;;;;7.72;2.05;;;;;;;31.11;18.82;99129.09;1711567;83;21384;-71
2022/05/20 11:44:09;;;;;;;7.05;1.75;;;;;;;31.13;18.91;99128.23;1720449;82;20868;-69
2022/05/20 11:46:46;;;;;;;;;;;;;;;31.07;19.34;99126.73;1722480;83;20987;-68
2022/05/20 11:49:42;;;;;;;6.80;1.92;;;;;;;31.04;19.39;99136.41;1711859;83;21173;-68
2022/05/20 11:52:24;;;;;;;4.28;1.80;;;;;;;30.76;19.57;99126.63;1720439;82;21401;-72
2022/05/20 11:55:20;;;;;;;5.40;1.40;;;;;;;30.38;19.95;99124.74;1719816;83;21031;-72
2022/05/20 11:57:51;;;;;;;2.90;1.98;;;;;;;30.11;20.42;99132.18;1711615;83;20976;-68
2022/05/20 12:00:19;;;;;;;6.78;1.50;;;;;;;29.94;20.80;99120.45;1708989;83;21422;-70
2022/05/20 12:03:14;;;;;;;3.45;1.62;;;;;;;29.86;20.89;99119.23;1710942;83;21211;-70
2022/05/20 12:05:44;;;;;;;5.37;1.80;;;;;;;29.83;21.16;99116.28;1725340;83;20882;-71
2022/05/20 12:08:45;;;;;;;2.37;1.60;;;;;;;29.76;21.36;99112.55;1754666;81;20954;-69
2022/05/20 12:11:26;;;;;;;4.37;1.62;;;;;;;29.77;21.57;99099.11;1725133;83;20930;-75
2022/05/20 12:14:07;;;;;;;3.67;1.75;;;;;;;29.83;21.82;99098.45;1725910;81;21029;-69
2022/05/20 12:16:54;;;;;;;3.10;1.80;;;;;;;29.95;22.12;99100.14;1711473;83;21267;-68
2022/05/20 12:25:37;;;;;;;6.83;1.90;;;;;;;30.07;21.13;99068.89;1740915;81;21565;-71
2022/05/20 12:28:12;;;;;;;7.55;1.90;;;;;;;30.04;20.61;99069.50;1754695;81;21550;-69
2022/05/20 12:30:43;;;;;;;3.50;1.65;;;;;;;30.04;20.90;99069.50;1750689;81;21502;-68
2022/05/20 12:33:27;;;;;;;4.83;1.85;;;;;;;30.09;20.37;99063.90;1754593;81;21078;-68
2022/05/20 12:36:17;;;;;;;7.55;2.00;;;;;;;30.11;19.59;99058.94;1749969;81;21098;-68
2022/05/20 12:38:44;;;;;;;5.53;2.17;;;;;;;30.12;19.26;99053.69;1754607;81;20925;-67
2022/05/20 12:41:43;;;;;;;6.75;2.40;;;;;;;30.13;19.30;99056.70;1754611;81;20978;-69